Time;durP1;ratioP1;P1;durP2;ratioP2;P2;SDS_P1;SDS_P2;PMS_P1;PMS_P2;Temp;Humidity;BMP_temperature;BMP_pressure;BME280_temperature;BME280_humidity;BME280_pressure;Samples;Min_cycle;Max_cycle;Signal;HPM_P1;HPM_P2
2021/04/02 00:00:02;;;;;;;1.50;1.10;;;5.60;99.90;;;;;;5054968;28;20548;-69
2021/04/02 00:02:39;;;;;;;4.70;0.80;;;5.60;99.90;;;;;;5054868;28;20558;-69
2021/04/02 00:05:08;;;;;;;2.03;0.82;;;5.60;99.90;;;;;;5055292;28;20201;-70
2021/04/02 00:07:35;;;;;;;1.20;0.88;;;5.50;99.90;;;;;;5054823;28;20219;-69
2021/04/02 00:10:05;;;;;;;1.60;0.93;;;5.50;99.90;;;;;;5054864;28;20208;-70
2021/04/02 00:12:32;;;;;;;0.88;0.60;;;5.40;99.90;;;;;;5054845;28;20178;-69
2021/04/02 00:14:59;;;;;;;2.38;0.95;;;5.50;99.90;;;;;;5053407;28;20308;-69
2021/04/02 00:17:26;;;;;;;1.30;0.90;;;5.50;99.90;;;;;;5054587;28;20205;-71
2021/04/02 00:19:56;;;;;;;3.03;1.40;;;5.50;99.90;;;;;;5054858;28;20654;-70
2021/04/02 00:22:23;;;;;;;1.00;0.70;;;5.60;99.90;;;;;;5054692;28;20189;-70
2021/04/02 00:24:50;;;;;;;1.42;1.10;;;5.60;99.90;;;;;;5054407;28;20177;-70
2021/04/02 00:27:17;;;;;;;1.35;0.93;;;5.40;99.90;;;;;;5053458;28;20223;-70
2021/04/02 00:29:44;;;;;;;1.20;1.00;;;5.20;99.90;;;;;;5055263;28;20325;-70
2021/04/02 00:32:11;;;;;;;0.90;0.75;;;5.20;99.90;;;;;;5054544;28;20189;-70
2021/04/02 00:34:38;;;;;;;1.20;0.82;;;5.20;99.90;;;;;;5054453;28;20588;-70
2021/04/02 00:37:07;;;;;;;1.70;1.20;;;5.10;99.90;;;;;;5054828;28;20205;-70
2021/04/02 00:39:34;;;;;;;2.83;1.00;;;5.10;99.90;;;;;;5054144;28;20713;-70
2021/04/02 00:42:01;;;;;;;1.27;0.90;;;5.10;99.90;;;;;;5054129;28;20181;-71
2021/04/02 00:44:28;;;;;;;1.20;0.90;;;5.00;99.90;;;;;;5054323;28;20181;-70
2021/04/02 00:46:56;;;;;;;1.63;1.17;;;5.00;99.90;;;;;;5052571;28;20221;-70
2021/04/02 00:49:23;;;;;;;1.13;1.02;;;5.00;99.90;;;;;;5054251;28;20196;-69
2021/04/02 00:51:50;;;;;;;4.40;1.08;;;4.80;99.90;;;;;;5054046;28;20184;-69
2021/04/02 00:54:18;;;;;;;1.00;0.82;;;4.90;99.90;;;;;;5052754;28;20204;-70
2021/04/02 00:56:45;;;;;;;14.18;1.60;;;4.90;99.90;;;;;;5053869;28;20211;-70
2021/04/02 00:59:13;;;;;;;3.65;1.20;;;4.80;99.90;;;;;;5038310;28;20246;-70
2021/04/02 01:01:40;;;;;;;5.53;3.05;;;5.00;99.90;;;;;;5053870;28;20185;-68
2021/04/02 01:04:07;;;;;;;1.45;1.05;;;4.90;99.90;;;;;;5053653;28;20434;-70
2021/04/02 01:06:34;;;;;;;1.60;1.48;;;4.80;99.90;;;;;;5035323;28;20232;-71
2021/04/02 01:09:03;;;;;;;1.20;1.10;;;4.70;99.90;;;;;;5035897;28;20538;-70
2021/04/02 01:11:33;;;;;;;1.33;1.08;;;5.10;99.90;;;;;;5035998;28;20197;-70
2021/04/02 01:14:04;;;;;;;4.90;1.35;;;5.10;99.90;;;;;;5035652;28;20189;-71
2021/04/02 01:16:34;;;;;;;1.58;1.45;;;4.90;99.90;;;;;;5053922;28;20291;-69
2021/04/02 01:19:12;;;;;;;1.65;1.35;;;4.90;99.90;;;;;;5035815;28;20223;-70
2021/04/02 01:21:44;;;;;;;1.27;0.90;;;4.70;99.90;;;;;;5053635;28;20279;-71
2021/04/02 01:24:23;;;;;;;0.98;0.82;;;4.50;99.90;;;;;;5053541;28;20598;-70
2021/04/02 01:27:04;;;;;;;1.73;1.20;;;4.50;99.90;;;;;;5035377;28;20228;-70
2021/04/02 01:29:43;;;;;;;2.08;1.13;;;4.40;99.90;;;;;;5035455;28;20191;-69
2021/04/02 01:32:13;;;;;;;2.35;1.02;;;4.40;99.90;;;;;;5053190;28;20173;-72
2021/04/02 01:34:44;;;;;;;1.70;1.20;;;4.30;99.90;;;;;;5053367;28;20200;-69
2021/04/02 01:37:22;;;;;;;2.97;1.45;;;4.60;99.90;;;;;;5035222;28;20263;-70
2021/04/02 01:39:51;;;;;;;1.27;0.85;;;4.50;99.90;;;;;;5053203;28;20179;-70
2021/04/02 01:42:21;;;;;;;2.00;1.23;;;4.30;99.90;;;;;;5035455;28;20634;-71
2021/04/02 01:44:53;;;;;;;1.30;1.15;;;4.30;99.90;;;;;;5035077;28;20212;-69
2021/04/02 01:47:23;;;;;;;1.17;1.08;;;4.20;99.90;;;;;;5052974;28;20208;-71
2021/04/02 01:49:54;;;;;;;1.30;1.00;;;4.10;99.90;;;;;;5035218;28;20618;-70
2021/04/02 01:52:25;;;;;;;2.85;1.27;;;4.00;99.90;;;;;;5053183;28;20548;-69
2021/04/02 01:54:54;;;;;;;1.52;0.90;;;4.00;99.90;;;;;;5035288;28;20188;-69
2021/04/02 01:57:23;;;;;;;3.35;1.70;;;4.00;99.90;;;;;;5052577;28;20223;-71
2021/04/02 01:59:54;;;;;;;3.40;1.45;;;3.90;99.90;;;;;;5035038;28;20185;-70
2021/04/02 02:02:24;;;;;;;3.75;1.55;;;3.90;99.90;;;;;;5052739;28;20515;-70
2021/04/02 02:04:54;;;;;;;3.08;1.73;;;3.90;99.90;;;;;;5053005;28;20208;-71
2021/04/02 02:07:22;;;;;;;2.10;1.40;;;3.80;99.90;;;;;;5034820;28;20227;-70
2021/04/02 02:09:58;;;;;;;1.35;1.13;;;3.70;99.90;;;;;;5052635;28;20177;-70
2021/04/02 02:12:36;;;;;;;1.70;1.58;;;3.90;99.90;;;;;;5034798;28;20192;-71
2021/04/02 02:15:15;;;;;;;1.85;1.42;;;3.90;99.90;;;;;;5034621;28;20189;-69
2021/04/02 02:17:47;;;;;;;2.90;2.15;;;3.80;99.90;;;;;;5052500;28;20215;-69
2021/04/02 02:20:16;;;;;;;3.05;1.98;;;3.80;99.90;;;;;;5033807;28;20434;-70
2021/04/02 02:22:43;;;;;;;2.92;1.92;;;3.70;99.90;;;;;;5034564;28;20185;-70
2021/04/02 02:25:16;;;;;;;2.33;1.60;;;3.50;99.90;;;;;;5034583;28;20690;-70
2021/04/02 02:27:56;;;;;;;2.28;1.40;;;3.40;99.90;;;;;;5034396;28;20217;-71
2021/04/02 02:30:27;;;;;;;2.42;2.13;;;3.40;99.90;;;;;;5052657;28;20258;-69
2021/04/02 02:33:01;;;;;;;3.13;2.22;;;3.40;99.90;;;;;;5034583;28;20193;-69
2021/04/02 02:35:32;;;;;;;2.35;1.67;;;3.30;99.90;;;;;;5034468;28;20188;-70
2021/04/02 02:38:01;;;;;;;2.97;2.33;;;3.30;99.90;;;;;;5052674;28;20291;-69
2021/04/02 02:40:33;;;;;;;3.47;2.08;;;3.50;99.90;;;;;;5034808;28;20250;-69
2021/04/02 02:43:02;;;;;;;2.63;1.50;;;3.60;99.90;;;;;;5052644;28;20165;-70
2021/04/02 02:45:32;;;;;;;2.03;1.73;;;3.40;99.90;;;;;;5051980;28;20183;-71
2021/04/02 02:48:01;;;;;;;4.93;1.65;;;3.50;99.90;;;;;;5034287;28;20209;-70
2021/04/02 02:50:35;;;;;;;2.72;2.33;;;3.90;99.90;;;;;;5034463;28;20227;-69
2021/04/02 02:53:05;;;;;;;2.75;1.60;;;3.80;99.90;;;;;;5034337;28;20177;-70
2021/04/02 02:55:36;;;;;;;4.13;2.05;;;3.60;99.90;;;;;;5052197;28;20419;-69
2021/04/02 02:58:08;;;;;;;7.65;2.05;;;3.70;99.90;;;;;;5051603;28;20235;-70
2021/04/02 03:00:42;;;;;;;2.45;1.70;;;3.80;99.90;;;;;;5034297;28;20283;-69
2021/04/02 03:03:15;;;;;;;3.55;2.65;;;4.00;99.90;;;;;;5034056;28;20195;-69
2021/04/02 03:05:50;;;;;;;4.88;1.75;;;3.80;99.90;;;;;;5033963;28;20200;-69
2021/04/02 03:08:26;;;;;;;3.88;1.85;;;3.70;99.90;;;;;;5052136;28;20594;-70
2021/04/02 03:10:58;;;;;;;1.92;1.70;;;3.60;99.90;;;;;;5052144;28;20177;-70
2021/04/02 03:13:28;;;;;;;2.10;1.45;;;3.30;99.90;;;;;;5033950;28;20200;-69
2021/04/02 03:15:58;;;;;;;3.88;1.88;;;3.30;99.90;;;;;;5034123;28;20189;-69
2021/04/02 03:18:28;;;;;;;7.07;2.85;;;3.60;99.90;;;;;;5052233;28;20169;-70
2021/04/02 03:21:01;;;;;;;2.15;1.40;;;3.50;99.90;;;;;;5033642;28;20279;-70
2021/04/02 03:23:29;;;;;;;2.05;1.90;;;3.60;99.90;;;;;;5051938;28;20243;-70
2021/04/02 03:25:57;;;;;;;1.92;1.80;;;3.20;1.00;;;;;;5033563;28;20197;-71
2021/04/02 03:28:26;;;;;;;3.72;2.13;;;3.60;99.90;;;;;;5051399;28;20182;-70
2021/04/02 03:30:57;;;;;;;1.95;1.50;;;3.40;99.90;;;;;;5036709;28;20193;-70
2021/04/02 03:33:35;;;;;;;1.20;0.98;;;3.20;99.90;;;;;;5035101;28;20204;-70
2021/04/02 03:36:23;;;;;;;3.50;2.65;;;3.20;99.90;;;;;;5035421;28;20201;-70
2021/04/02 03:38:53;;;;;;;1.95;1.60;;;3.00;99.90;;;;;;5017481;28;20189;-70
2021/04/02 03:41:28;;;;;;;2.88;2.00;;;3.00;99.90;;;;;;5017603;28;20219;-70
2021/04/02 03:43:59;;;;;;;2.17;1.98;;;2.90;99.90;;;;;;5017725;28;20569;-70
2021/04/02 03:46:29;;;;;;;5.72;2.05;;;3.00;99.90;;;;;;5017442;28;20273;-70
2021/04/02 03:49:02;;;;;;;2.30;2.10;;;3.10;99.90;;;;;;5017564;28;20204;-70
2021/04/02 03:51:38;;;;;;;3.05;1.73;;;2.90;99.90;;;;;;5018040;28;20556;-70
2021/04/02 03:54:08;;;;;;;3.22;1.98;;;3.20;99.90;;;;;;5017446;28;20243;-70
2021/04/02 03:56:39;;;;;;;2.30;2.10;;;2.90;99.90;;;;;;5020259;28;20216;-71
2021/04/02 03:59:12;;;;;;;4.20;2.55;;;3.40;99.90;;;;;;5024600;28;20207;-71
2021/04/02 04:01:49;;;;;;;2.92;2.00;;;3.80;99.90;;;;;;5023787;28;20193;-70
2021/04/02 04:04:21;;;;;;;2.70;2.35;;;4.40;1.00;;;;;;5023386;28;20259;-71
2021/04/02 04:06:52;;;;;;;2.63;1.80;;;5.20;99.90;;;;;;5017679;28;20217;-71
2021/04/02 04:09:22;;;;;;;6.35;1.60;;;5.50;99.90;;;;;;5035193;28;20169;-71
2021/04/02 04:11:56;;;;;;;3.83;2.05;;;5.10;99.90;;;;;;5017131;28;20658;-71
2021/04/02 04:14:33;;;;;;;3.03;2.28;;;4.40;1.00;;;;;;5017333;28;20542;-70
2021/04/02 04:17:07;;;;;;;1.92;1.75;;;4.10;99.90;;;;;;5017908;28;20217;-70
2021/04/02 04:19:37;;;;;;;3.60;2.25;;;4.00;99.90;;;;;;5036823;28;20577;-70
2021/04/02 04:22:10;;;;;;;2.60;2.20;;;4.10;99.90;;;;;;5017153;28;20221;-71
2021/04/02 04:24:43;;;;;;;4.75;2.70;;;3.80;99.90;;;;;;5037706;28;20201;-70
2021/04/02 04:27:11;;;;;;;4.38;2.60;;;3.90;99.90;;;;;;5048046;28;20252;-70
2021/04/02 04:29:41;;;;;;;2.00;1.90;;;3.80;99.90;;;;;;5035128;28;20188;-71
2021/04/02 04:32:15;;;;;;;5.88;2.33;;;3.50;99.90;;;;;;5035599;28;20263;-70
2021/04/02 04:34:45;;;;;;;3.17;2.65;;;3.80;99.90;;;;;;5036147;28;20188;-69
2021/04/02 04:37:14;;;;;;;3.85;2.15;;;3.40;99.90;;;;;;5043375;28;20209;-70
2021/04/02 04:39:43;;;;;;;3.05;2.47;;;3.00;99.90;;;;;;5048523;28;20196;-70
2021/04/02 04:42:12;;;;;;;3.08;2.60;;;3.70;99.90;;;;;;5047996;28;20261;-70
2021/04/02 04:44:41;;;;;;;5.18;2.80;;;3.70;1.00;;;;;;5048246;28;20212;-70
2021/04/02 04:47:09;;;;;;;2.95;2.10;;;5.00;99.90;;;;;;5048909;28;20213;-70
2021/04/02 04:49:36;;;;;;;2.53;2.25;;;5.80;99.90;;;;;;5039791;28;20196;-70
2021/04/02 04:52:07;;;;;;;2.15;1.95;;;5.60;99.90;;;;;;5034445;28;20181;-70
2021/04/02 04:54:35;;;;;;;4.30;2.08;;;5.20;99.90;;;;;;5034184;28;20186;-70
2021/04/02 04:57:04;;;;;;;3.53;1.90;;;5.30;99.90;;;;;;5033659;28;20209;-70
2021/04/02 04:59:33;;;;;;;10.77;2.78;;;5.10;99.90;;;;;;5033412;28;20193;-70
2021/04/02 05:02:02;;;;;;;3.33;2.35;;;5.10;99.90;;;;;;5033619;28;20178;-70
2021/04/02 05:04:31;;;;;;;2.38;1.80;;;5.30;99.90;;;;;;5033387;28;20184;-71
2021/04/02 05:07:01;;;;;;;3.80;2.25;;;5.70;99.90;;;;;;5033601;28;20221;-70
2021/04/02 05:09:29;;;;;;;4.63;3.25;;;6.30;99.90;;;;;;5033227;28;20692;-70
2021/04/02 05:12:01;;;;;;;2.63;2.08;;;6.00;99.90;;;;;;5033089;28;20197;-70
2021/04/02 05:14:29;;;;;;;4.57;2.67;;;5.50;99.90;;;;;;5032994;28;20174;-70
2021/04/02 05:16:58;;;;;;;2.45;1.80;;;5.30;99.90;;;;;;5033071;28;20381;-70
2021/04/02 05:19:26;;;;;;;2.85;2.25;;;5.30;99.90;;;;;;5032936;28;20204;-70
2021/04/02 05:21:54;;;;;;;1.85;1.45;;;5.60;99.90;;;;;;5015445;28;20193;-70
2021/04/02 05:24:23;;;;;;;8.75;2.47;;;5.40;99.90;;;;;;5014916;28;20204;-69
2021/04/02 05:26:51;;;;;;;2.97;2.30;;;5.50;99.90;;;;;;5032959;28;20239;-70
2021/04/02 05:29:18;;;;;;;3.35;2.05;;;6.30;99.90;;;;;;5032827;28;20583;-70
2021/04/02 05:31:46;;;;;;;3.63;2.88;;;6.80;99.90;;;;;;5032686;28;20204;-70
2021/04/02 05:34:14;;;;;;;6.38;3.45;;;7.20;99.90;;;;;;5015092;28;20617;-70
2021/04/02 05:36:41;;;;;;;3.53;2.90;;;7.10;99.90;;;;;;5032630;28;20210;-70
2021/04/02 05:39:09;;;;;;;3.70;2.53;;;6.40;99.90;;;;;;5032996;28;20200;-70
2021/04/02 05:41:45;;;;;;;4.32;3.38;;;6.00;99.90;;;;;;5032677;28;20184;-70
2021/04/02 05:44:15;;;;;;;6.07;4.30;;;6.30;99.90;;;;;;5032465;28;20263;-70
2021/04/02 05:46:45;;;;;;;5.32;2.92;;;6.50;99.90;;;;;;5041630;28;20221;-70
2021/04/02 05:49:14;;;;;;;4.18;3.47;;;5.80;99.90;;;;;;5052436;28;20533;-69
2021/04/02 05:51:42;;;;;;;8.63;4.20;;;4.90;99.90;;;;;;5052357;28;20185;-70
2021/04/02 05:54:13;;;;;;;6.57;3.85;;;4.40;99.90;;;;;;5052289;28;20177;-70
2021/04/02 05:56:41;;;;;;;8.35;4.35;;;4.00;99.90;;;;;;5051548;28;20217;-70
2021/04/02 05:59:08;;;;;;;11.55;3.80;;;3.70;99.90;;;;;;5052310;28;20192;-69
2021/04/02 06:01:36;;;;;;;4.82;3.15;;;4.10;99.90;;;;;;5052411;28;20232;-71
2021/04/02 06:04:04;;;;;;;6.50;4.03;;;4.20;99.90;;;;;;5052214;28;20603;-70
2021/04/02 06:06:32;;;;;;;4.85;3.60;;;4.10;99.90;;;;;;5052190;28;20212;-70
2021/04/02 06:09:00;;;;;;;5.32;3.45;;;3.40;99.90;;;;;;5052354;28;20177;-70
2021/04/02 06:11:28;;;;;;;6.47;4.13;;;3.60;99.90;;;;;;5052171;28;20548;-70
2021/04/02 06:13:55;;;;;;;8.27;4.63;;;3.50;99.90;;;;;;5052113;28;20242;-70
2021/04/02 06:16:23;;;;;;;10.90;4.97;;;3.70;99.90;;;;;;5052568;28;20208;-71
2021/04/02 06:18:56;;;;;;;7.13;4.72;;;4.60;99.90;;;;;;5051548;28;20272;-70
2021/04/02 06:21:25;;;;;;;6.65;3.50;;;4.50;99.90;;;;;;5052204;28;20255;-69
2021/04/02 06:23:52;;;;;;;7.70;5.32;;;4.40;99.90;;;;;;5052422;28;20673;-71
2021/04/02 06:26:19;;;;;;;10.10;6.07;;;4.70;99.90;;;;;;5051756;28;20291;-70
2021/04/02 06:28:47;;;;;;;8.20;7.07;;;4.90;99.90;;;;;;5052058;28;20173;-71
2021/04/02 06:31:16;;;;;;;6.53;4.80;;;5.30;99.90;;;;;;5052173;28;20195;-70
2021/04/02 06:33:45;;;;;;;7.18;4.30;;;6.30;99.90;;;;;;5051832;28;20195;-70
2021/04/02 06:36:14;;;;;;;10.02;8.18;;;6.20;99.90;;;;;;5051823;28;20184;-70
2021/04/02 06:38:43;;;;;;;11.50;6.80;;;5.90;99.90;;;;;;5051614;28;20177;-71
2021/04/02 06:41:11;;;;;;;12.68;6.95;;;5.50;99.90;;;;;;5051926;28;20177;-70
2021/04/02 06:43:44;;;;;;;4.95;3.67;;;5.00;99.90;;;;;;5051401;28;20669;-70
2021/04/02 06:46:14;;;;;;;10.77;6.63;;;4.80;99.90;;;;;;5051396;28;20242;-70
2021/04/02 06:48:41;;;;;;;37.92;24.98;;;5.10;99.90;;;;;;5050334;28;20195;-70
2021/04/02 06:51:13;;;;;;;30.75;17.50;;;4.70;99.90;;;;;;5051829;28;20216;-70
2021/04/02 06:53:42;;;;;;;7.43;5.13;;;4.70;99.90;;;;;;5051642;28;20207;-71
2021/04/02 06:56:11;;;;;;;11.13;5.43;;;5.30;99.90;;;;;;5051335;28;20248;-70
2021/04/02 06:58:39;;;;;;;9.48;5.55;;;5.40;99.90;;;;;;5051543;28;20271;-70
2021/04/02 07:01:08;;;;;;;11.73;5.47;;;4.70;99.90;;;;;;5051709;28;20181;-70
2021/04/02 07:03:41;;;;;;;8.00;4.50;;;4.50;99.90;;;;;;5050063;28;20196;-70
2021/04/02 07:06:09;;;;;;;9.00;5.15;;;4.40;99.90;;;;;;5052704;28;20211;-71
2021/04/02 07:08:39;;;;;;;11.75;4.93;;;4.60;99.90;;;;;;5056024;28;20169;-70
2021/04/02 07:11:07;;;;;;;6.45;4.20;;;4.50;99.90;;;;;;5055615;28;20554;-70
2021/04/02 07:13:38;;;;;;;11.05;6.75;;;4.60;99.90;;;;;;5055625;28;20195;-70
2021/04/02 07:16:07;;;;;;;11.20;5.18;;;5.50;99.90;;;;;;5055557;28;20552;-69
2021/04/02 07:18:34;;;;;;;5.85;4.28;;;6.10;99.90;;;;;;5055766;28;20272;-71
2021/04/02 07:21:03;;;;;;;6.82;4.68;;;6.50;99.90;;;;;;5055977;28;20211;-70
2021/04/02 07:23:32;;;;;;;6.97;3.95;;;6.80;99.90;;;;;;5056323;28;20531;-70
2021/04/02 07:25:59;;;;;;;12.20;6.63;;;7.20;99.90;;;;;;5055294;28;20177;-71
2021/04/02 07:28:27;;;;;;;6.40;4.03;;;7.20;99.90;;;;;;5055471;28;20184;-70
2021/04/02 07:30:56;;;;;;;6.90;4.55;;;7.20;99.90;;;;;;5055769;28;20184;-71
2021/04/02 07:33:26;;;;;;;8.30;4.40;;;6.90;99.90;;;;;;5055441;28;20220;-71
2021/04/02 07:35:56;;;;;;;6.05;4.35;;;6.30;99.90;;;;;;5055495;28;20192;-71
2021/04/02 07:38:27;;;;;;;6.60;3.58;;;5.50;99.90;;;;;;5055106;28;20657;-71
2021/04/02 07:40:56;;;;;;;10.90;5.47;;;5.40;99.90;;;;;;5055309;28;20222;-70
2021/04/02 07:43:30;;;;;;;6.82;4.45;;;5.40;99.90;;;;;;5054880;28;20269;-70
2021/04/02 07:46:02;;;;;;;8.75;5.78;;;5.20;99.90;;;;;;5055068;28;20279;-70
2021/04/02 07:48:29;;;;;;;8.00;4.70;;;5.90;99.90;;;;;;5053642;28;20533;-70
2021/04/02 07:51:01;;;;;;;5.47;4.28;;;6.20;99.90;;;;;;5054796;28;20702;-71
2021/04/02 07:53:45;;;;;;;7.88;4.50;;;6.40;99.90;;;;;;5054688;28;20689;-72
2021/04/02 07:56:15;;;;;;;8.68;4.53;;;7.20;99.90;;;;;;5054844;28;20260;-71
2021/04/02 07:58:47;;;;;;;8.25;4.50;;;6.80;99.90;;;;;;5054587;28;20189;-71
2021/04/02 08:01:17;;;;;;;12.55;5.90;;;6.60;99.90;;;;;;5054515;28;20192;-71
2021/04/02 08:03:46;;;;;;;7.68;4.80;;;6.20;99.90;;;;;;5054352;28;20279;-70
2021/04/02 08:06:29;;;;;;;8.25;5.18;;;6.00;99.90;;;;;;5054795;28;20685;-71
2021/04/02 08:08:57;;;;;;;9.30;6.50;;;6.10;99.90;;;;;;5054517;28;20181;-71
2021/04/02 08:11:27;;;;;;;6.78;5.82;;;6.70;99.90;;;;;;5054279;28;20185;-71
2021/04/02 08:13:58;;;;;;;8.00;5.60;;;7.10;99.90;;;;;;5054170;28;20189;-70
2021/04/02 08:16:41;;;;;;;7.10;4.85;;;7.90;99.90;;;;;;5052894;28;20539;-70
2021/04/02 08:19:11;;;;;;;6.45;5.80;;;7.50;99.90;;;;;;5054080;28;20260;-71
2021/04/02 08:21:40;;;;;;;5.80;3.50;;;7.70;99.90;;;;;;5054048;28;20572;-71
2021/04/02 08:24:11;;;;;;;6.55;4.95;;;8.90;99.90;;;;;;5052347;28;20296;-70
2021/04/02 08:26:39;;;;;;;4.40;3.67;;;9.40;99.90;;;;;;5053775;28;20213;-70
2021/04/02 08:29:08;;;;;;;8.13;4.38;;;9.50;99.90;;;;;;5053461;28;20188;-71
2021/04/02 08:31:38;;;;;;;9.20;5.80;;;8.80;99.90;;;;;;5041698;28;20315;-70
2021/04/02 08:34:06;;;;;;;7.70;4.40;;;8.00;99.90;;;;;;5050706;28;20177;-70
2021/04/02 08:36:33;;;;;;;7.97;6.20;;;7.90;99.90;;;;;;5041871;28;20206;-71
2021/04/02 08:39:01;;;;;;;11.07;6.53;;;7.70;99.90;;;;;;5033775;28;20185;-70
2021/04/02 08:41:30;;;;;;;11.70;9.07;;;7.30;99.90;;;;;;5033685;28;20236;-71
2021/04/02 08:43:59;;;;;;;20.80;16.50;;;7.20;99.90;;;;;;5033840;28;20177;-71
2021/04/02 08:46:38;;;;;;;13.68;9.20;;;7.40;99.90;;;;;;5039899;28;20237;-72
2021/04/02 08:49:06;;;;;;;15.00;12.07;;;7.80;99.90;;;;;;5037247;28;20269;-71
2021/04/02 08:51:35;;;;;;;12.07;8.13;;;8.30;99.90;;;;;;5053471;28;20214;-70
2021/04/02 08:54:04;;;;;;;13.70;7.25;;;8.40;99.90;;;;;;5053336;28;20193;-72
2021/04/02 08:56:33;;;;;;;5.22;3.72;;;8.90;99.90;;;;;;5053387;28;20213;-70
2021/04/02 08:59:07;;;;;;;7.80;5.38;;;8.50;99.90;;;;;;5053575;28;20625;-71
2021/04/02 09:01:36;;;;;;;14.48;7.32;;;8.80;99.90;;;;;;5053877;28;20237;-70
2021/04/02 09:04:05;;;;;;;6.15;4.18;;;8.50;99.90;;;;;;5053777;28;20177;-71
2021/04/02 09:06:33;;;;;;;6.60;3.85;;;7.90;99.90;;;;;;5036265;28;20290;-70
2021/04/02 09:09:01;;;;;;;8.93;6.55;;;7.30;99.90;;;;;;5054614;28;20177;-71
2021/04/02 09:11:28;;;;;;;8.13;4.15;;;7.40;99.90;;;;;;5054730;28;20197;-72
2021/04/02 09:13:57;;;;;;;7.25;5.10;;;8.20;99.90;;;;;;5057694;28;20195;-72
2021/04/02 09:16:25;;;;;;;6.28;3.05;;;8.50;99.90;;;;;;5041825;28;20201;-72
2021/04/02 09:18:56;;;;;;;6.60;4.30;;;8.70;99.90;;;;;;5039238;28;20184;-71
2021/04/02 09:21:24;;;;;;;6.97;4.25;;;8.70;99.90;;;;;;5038363;28;20687;-72
2021/04/02 09:23:53;;;;;;;5.47;3.38;;;9.30;99.90;;;;;;5039255;28;20180;-71
2021/04/02 09:26:21;;;;;;;5.13;3.25;;;9.00;99.90;;;;;;5053046;28;20280;-71
2021/04/02 09:28:49;;;;;;;5.38;4.63;;;8.40;99.90;;;;;;5052577;28;20181;-71
2021/04/02 09:31:21;;;;;;;4.47;3.60;;;8.20;99.90;;;;;;5052738;28;20188;-71
2021/04/02 09:33:52;;;;;;;5.30;3.13;;;8.60;99.90;;;;;;5052599;28;20212;-70
2021/04/02 09:36:21;;;;;;;7.68;3.70;;;8.70;99.90;;;;;;5052351;28;20216;-72
2021/04/02 09:38:49;;;;;;;3.88;2.88;;;9.20;99.90;;;;;;5052636;28;20547;-71
2021/04/02 09:41:23;;;;;;;3.97;2.67;;;9.20;99.90;;;;;;5052573;28;20181;-72
2021/04/02 09:43:51;;;;;;;4.00;2.88;;;9.30;99.90;;;;;;5052665;28;20214;-72
2021/04/02 09:46:31;;;;;;;2.92;2.60;;;9.40;99.90;;;;;;5052721;28;20283;-72
2021/04/02 09:49:06;;;;;;;9.07;5.85;;;9.30;99.90;;;;;;5052356;28;20183;-72
2021/04/02 09:51:35;;;;;;;3.85;3.00;;;8.50;99.90;;;;;;5052579;28;20259;-71
2021/04/02 09:54:03;;;;;;;6.85;3.85;;;8.30;99.90;;;;;;5044948;28;20268;-70
2021/04/02 09:56:30;;;;;;;4.25;3.85;;;8.90;99.90;;;;;;5032244;28;20220;-70
2021/04/02 09:58:57;;;;;;;5.70;3.83;;;9.10;99.90;;;;;;5032158;28;20201;-71
2021/04/02 10:01:24;;;;;;;2.30;2.10;;;9.10;99.90;;;;;;5032219;28;20221;-72
2021/04/02 10:03:53;;;;;;;3.10;2.45;;;9.30;99.90;;;;;;5032327;28;20192;-71
2021/04/02 10:06:20;;;;;;;3.25;2.50;;;9.90;99.90;;;;;;5031795;28;20220;-72
2021/04/02 10:08:47;;;;;;;3.58;2.10;;;10.40;99.90;;;;;;5031919;28;20667;-71
2021/04/02 10:11:15;;;;;;;4.85;3.08;;;10.60;99.90;;;;;;5041800;28;20200;-71
2021/04/02 10:13:43;;;;;;;2.13;1.60;;;11.00;99.90;;;;;;5037509;28;20201;-72
2021/04/02 10:16:10;;;;;;;2.80;2.20;;;10.20;99.90;;;;;;5051291;28;20191;-71
2021/04/02 10:18:38;;;;;;;2.53;1.75;;;10.00;99.90;;;;;;5051642;28;20567;-70
2021/04/02 10:21:07;;;;;;;3.30;2.65;;;10.10;99.90;;;;;;5043756;28;20246;-72
2021/04/02 10:23:35;;;;;;;6.10;2.33;;;9.80;99.90;;;;;;5031918;28;20193;-72
2021/04/02 10:26:03;;;;;;;3.25;1.75;;;9.80;99.90;;;;;;5031844;28;20173;-72
2021/04/02 10:28:30;;;;;;;6.35;2.10;;;10.10;99.90;;;;;;5031997;28;20689;-71
2021/04/02 10:30:59;;;;;;;5.07;2.13;;;10.20;99.90;;;;;;5032094;28;20587;-72
2021/04/02 10:33:26;;;;;;;3.88;1.80;;;10.00;99.90;;;;;;5032738;28;20173;-73
2021/04/02 10:35:53;;;;;;;3.58;2.17;;;10.10;99.90;;;;;;5014839;28;20713;-73
2021/04/02 10:38:22;;;;;;;2.97;2.15;;;10.70;99.90;;;;;;5031891;28;20182;-71
2021/04/02 10:40:49;;;;;;;6.53;2.38;;;10.60;99.90;;;;;;5013426;28;20201;-71
2021/04/02 10:43:16;;;;;;;2.95;1.95;;;11.00;99.90;;;;;;5033105;28;20190;-72
2021/04/02 10:45:44;;;;;;;3.40;2.10;;;11.30;99.90;;;;;;5032226;28;20181;-72
2021/04/02 10:48:11;;;;;;;2.33;2.00;;;11.40;99.90;;;;;;5044217;28;20221;-72
2021/04/02 10:50:41;;;;;;;4.28;2.15;;;11.40;99.90;;;;;;5039346;28;20186;-73
2021/04/02 10:53:09;;;;;;;3.17;1.80;;;11.00;99.90;;;;;;5031630;28;20593;-74
2021/04/02 10:55:37;;;;;;;2.80;1.88;;;10.70;99.90;;;;;;5013861;28;20201;-74
2021/04/02 10:58:06;;;;;;;3.10;2.25;;;10.70;99.90;;;;;;5031096;28;20217;-72
2021/04/02 11:00:35;;;;;;;2.20;1.30;;;10.70;99.90;;;;;;5031279;28;20181;-72
2021/04/02 11:03:03;;;;;;;2.60;1.70;;;10.70;99.90;;;;;;5031137;28;20194;-72
2021/04/02 11:05:31;;;;;;;2.45;1.67;;;11.10;99.90;;;;;;5041211;28;20193;-74
2021/04/02 11:07:59;;;;;;;2.57;1.90;;;11.50;99.90;;;;;;5039046;28;20213;-72
2021/04/02 11:10:27;;;;;;;2.30;1.80;;;11.50;99.90;;;;;;5039176;28;20431;-73
2021/04/02 11:12:55;;;;;;;2.17;1.67;;;11.60;99.90;;;;;;5030980;28;20880;-72
2021/04/02 11:15:22;;;;;;;3.33;1.83;;;11.70;99.90;;;;;;5030911;28;20197;-71
2021/04/02 11:17:52;;;;;;;3.65;1.73;;;12.00;99.90;;;;;;5013507;28;20448;-71
2021/04/02 11:20:25;;;;;;;2.97;1.57;;;12.10;99.90;;;;;;5031287;28;20189;-70
2021/04/02 11:22:53;;;;;;;2.83;2.50;;;12.50;99.90;;;;;;5031015;28;20428;-72
2021/04/02 11:25:20;;;;;;;2.87;2.50;;;12.60;99.90;;;;;;5031120;28;20408;-72
2021/04/02 11:27:47;;;;;;;2.37;2.13;;;12.60;99.90;;;;;;5029204;28;20464;-71
2021/04/02 11:30:17;;;;;;;3.17;2.03;;;12.70;99.90;;;;;;5030230;28;20815;-72
2021/04/02 11:32:45;;;;;;;3.27;1.70;;;12.40;99.90;;;;;;5014133;28;20527;-72
2021/04/02 11:35:13;;;;;;;2.67;1.87;;;12.40;99.90;;;;;;5029298;28;20846;-71
2021/04/02 11:37:41;;;;;;;1.93;1.53;;;12.30;99.90;;;;;;5056541;28;20446;-70
2021/04/02 11:40:12;;;;;;;3.10;1.47;;;12.40;99.90;;;;;;5070976;28;20410;-72
2021/04/02 11:42:39;;;;;;;3.37;1.50;;;12.80;99.90;;;;;;5048661;28;20427;-72
2021/04/02 11:45:09;;;;;;;2.00;1.17;;;13.10;99.90;;;;;;5034073;28;20832;-73
2021/04/02 11:47:38;;;;;;;2.80;1.83;;;12.90;99.90;;;;;;5040306;28;20546;-69
2021/04/02 11:50:07;;;;;;;1.90;1.43;;;12.60;99.90;;;;;;5036407;28;20446;-72
2021/04/02 11:52:35;;;;;;;2.10;1.37;;;12.70;99.90;;;;;;5049109;28;20514;-69
2021/04/02 11:55:04;;;;;;;3.50;1.50;;;13.00;99.90;;;;;;5055274;28;20435;-71
2021/04/02 11:57:33;;;;;;;1.30;1.00;;;12.80;99.90;;;;;;5049380;28;20475;-74
2021/04/02 12:00:03;;;;;;;1.93;1.33;;;12.70;99.90;;;;;;5020208;28;20817;-72
2021/04/02 12:02:40;;;;;;;1.50;1.40;;;12.40;99.90;;;;;;5040217;28;20957;-72
2021/04/02 12:05:08;;;;;;;4.80;1.73;;;12.60;99.90;;;;;;5020588;28;20985;-72
2021/04/02 12:07:36;;;;;;;2.17;1.60;;;12.80;99.90;;;;;;5052239;28;20870;-72
2021/04/02 12:10:05;;;;;;;2.33;1.80;;;12.90;99.90;;;;;;5056218;28;20466;-70
2021/04/02 12:12:32;;;;;;;2.47;2.23;;;13.10;99.90;;;;;;5037116;28;20815;-71
2021/04/02 12:15:00;;;;;;;2.10;1.23;;;13.30;99.90;;;;;;5049387;28;20404;-70
2021/04/02 12:17:27;;;;;;;1.30;1.03;;;13.10;99.90;;;;;;5044464;28;20508;-68
2021/04/02 12:19:55;;;;;;;2.37;1.83;;;12.60;99.90;;;;;;5054024;28;20439;-70
2021/04/02 12:22:22;;;;;;;2.80;1.30;;;12.30;99.90;;;;;;5054595;28;20420;-70
2021/04/02 12:24:49;;;;;;;1.10;1.00;;;12.00;99.90;;;;;;5050699;28;20955;-73
2021/04/02 12:27:17;;;;;;;1.27;0.90;;;11.60;99.90;;;;;;5049759;28;20471;-72
2021/04/02 12:29:44;;;;;;;2.65;0.95;;;11.20;99.90;;;;;;5052277;28;20264;-72
2021/04/02 12:32:11;;;;;;;1.45;0.80;;;11.40;99.90;;;;;;5051497;28;20196;-70
2021/04/02 12:34:38;;;;;;;1.90;1.00;;;11.50;99.90;;;;;;5055560;28;20212;-73
2021/04/02 12:37:07;;;;;;;1.30;0.85;;;11.70;99.90;;;;;;5055844;28;20575;-72
2021/04/02 12:39:34;;;;;;;1.43;1.10;;;11.90;99.90;;;;;;5053508;28;20203;-71
2021/04/02 12:42:02;;;;;;;1.10;0.73;;;12.30;99.90;;;;;;5053696;28;20477;-71
2021/04/02 12:44:29;;;;;;;2.43;1.10;;;12.80;99.90;;;;;;5035611;28;20428;-71
2021/04/02 12:46:56;;;;;;;1.97;1.20;;;13.00;99.90;;;;;;5052717;28;20528;-72
2021/04/02 12:49:23;;;;;;;1.17;0.67;;;12.80;99.90;;;;;;5038477;28;20518;-68
2021/04/02 12:51:51;;;;;;;2.37;1.67;;;13.00;99.90;;;;;;5046791;28;20479;-70
2021/04/02 12:54:19;;;;;;;1.60;0.97;;;12.80;99.90;;;;;;5041201;28;20494;-70
2021/04/02 12:56:49;;;;;;;1.77;0.93;;;12.60;99.90;;;;;;5019500;28;20877;-71
2021/04/02 12:59:16;;;;;;;1.20;0.90;;;12.80;99.90;;;;;;5052538;28;20409;-70
2021/04/02 13:01:44;;;;;;;1.93;1.07;;;13.20;99.90;;;;;;5051717;28;20439;-70
2021/04/02 13:04:11;;;;;;;1.13;1.00;;;13.20;99.90;;;;;;5046840;28;20484;-70